KVSF/VSF METAR and TAF weather

Enter ICAO airport designator
Station Type Date Time Source
KVSF METAR 2018/12/13 19:54 UTC NOAA

KVSF 131954Z AUTO 00000KT 5SM -SN BKN039 OVC060 M07/M10 A3050 RMK AO2 SLP340 P0000 T10671100


Station Type Date Time Source
KVSF Decoded METAR 2018/12/13 19:54 UTC NOAA

HARTNESS STATE AIRPORT, VT, United States (KVSF) 43-21N 72-31W 175M
Dec 13, 2018 - 02:54 PM EST / 2018.12.13 1954 UTC
Wind: Calm:0
Visibility: 5 mile(s):0
Sky conditions: overcast
Weather: light snow
Precipitation last hour: A trace
Temperature: 19.9 F (-6.7 C)
Dew Point: 14.0 F (-10.0 C)
Relative Humidity: 77%
Pressure (altimeter): 30.5 in. Hg (1032 hPa)
ob: KVSF 131954Z AUTO 00000KT 5SM -SN BKN039 OVC060 M07/M10 A3050 RMK AO2 SLP340 P0000 T10671100
cycle: 20

Station Type Date Time Source
KVSF TAF UTC NOAA

Error!


Example: see airport list